Time;durP1;ratioP1;P1;durP2;ratioP2;P2;SDS_P1;SDS_P2;PMS_P1;PMS_P2;Temp;Humidity;BMP_temperature;BMP_pressure;BME280_temperature;BME280_humidity;BME280_pressure;Samples;Min_cycle;Max_cycle;Signal;HPM_P1;HPM_P2
2023/03/05 00:00:10;;;;;;;10.65;2.78;;;4.50;99.90;;;;;;5050846;28;20116;-66
2023/03/05 00:02:36;;;;;;;13.38;3.10;;;4.50;99.90;;;;;;5049738;28;20033;-65
2023/03/05 00:05:01;;;;;;;11.90;3.15;;;4.50;99.90;;;;;;5045696;28;20066;-66
2023/03/05 00:07:27;;;;;;;18.20;4.22;;;4.50;99.90;;;;;;5051526;28;20571;-67
2023/03/05 00:09:52;;;;;;;12.77;3.50;;;4.50;99.90;;;;;;5045633;28;20108;-65
2023/03/05 00:12:18;;;;;;;8.60;3.35;;;4.50;99.90;;;;;;5043637;28;20397;-65
2023/03/05 00:14:43;;;;;;;11.48;3.30;;;4.50;99.90;;;;;;5050407;28;20032;-66
2023/03/05 00:17:09;;;;;;;13.63;3.42;;;4.50;99.90;;;;;;5051375;28;20056;-66
2023/03/05 00:19:35;;;;;;;7.18;2.97;;;4.50;99.90;;;;;;5051451;28;20510;-67
2023/03/05 00:22:00;;;;;;;10.75;3.72;;;4.40;99.90;;;;;;5052425;28;20074;-66
2023/03/05 00:24:26;;;;;;;20.88;3.58;;;4.40;99.90;;;;;;5051313;28;20452;-66
2023/03/05 00:26:52;;;;;;;16.02;3.30;;;4.40;99.90;;;;;;5075260;22;20059;-63
2023/03/05 00:29:20;;;;;;;16.25;3.83;;;4.30;99.90;;;;;;5050937;28;20383;-64
2023/03/05 00:31:46;;;;;;;9.70;2.63;;;4.30;99.90;;;;;;5035594;28;20441;-64
2023/03/05 00:34:14;;;;;;;10.68;2.90;;;4.30;99.90;;;;;;5047492;28;20029;-64
2023/03/05 00:36:43;;;;;;;14.25;2.75;;;4.30;99.90;;;;;;5045869;28;20032;-64
2023/03/05 00:39:09;;;;;;;12.85;2.78;;;4.30;99.90;;;;;;5042372;28;20099;-64
2023/03/05 00:41:35;;;;;;;7.25;2.80;;;4.30;99.90;;;;;;5046541;28;20037;-64
2023/03/05 00:44:01;;;;;;;5.63;2.03;;;4.20;99.90;;;;;;5051788;28;20597;-63
2023/03/05 00:46:26;;;;;;;11.10;2.50;;;4.30;99.90;;;;;;5048359;28;20037;-64
2023/03/05 00:48:53;;;;;;;14.32;2.17;;;4.20;99.90;;;;;;5049291;28;20465;-64
2023/03/05 00:51:19;;;;;;;13.52;2.05;;;4.20;99.90;;;;;;5050063;28;20037;-64
2023/03/05 00:53:45;;;;;;;6.40;1.77;;;4.20;99.90;;;;;;5047408;28;20108;-63
2023/03/05 00:56:11;;;;;;;10.45;1.60;;;4.20;99.90;;;;;;5044562;28;20128;-63
2023/03/05 00:58:37;;;;;;;6.68;1.73;;;4.20;99.90;;;;;;5049637;28;20044;-63
2023/03/05 01:01:03;;;;;;;4.90;1.55;;;4.20;99.90;;;;;;5051233;28;20095;-63
2023/03/05 01:03:30;;;;;;;9.60;1.92;;;4.20;99.90;;;;;;5046595;28;20090;-63
2023/03/05 01:05:56;;;;;;;10.02;2.08;;;4.20;99.90;;;;;;5050636;28;20033;-63
2023/03/05 01:08:22;;;;;;;5.82;1.85;;;4.20;99.90;;;;;;5050905;28;20119;-64
2023/03/05 01:10:47;;;;;;;13.23;1.92;;;4.20;99.90;;;;;;5052557;28;20482;-64
2023/03/05 01:13:14;;;;;;;8.20;1.70;;;4.20;99.90;;;;;;5049256;28;20543;-63
2023/03/05 01:15:39;;;;;;;16.42;3.70;;;4.10;99.90;;;;;;5048921;28;20028;-63
2023/03/05 01:18:05;;;;;;;8.27;2.00;;;4.20;99.90;;;;;;5053863;28;20086;-63
2023/03/05 01:20:31;;;;;;;9.07;2.78;;;4.10;99.90;;;;;;5052791;28;20181;-65
2023/03/05 01:22:58;;;;;;;14.52;2.00;;;4.10;99.90;;;;;;5052029;28;20109;-63
2023/03/05 01:25:24;;;;;;;10.77;2.40;;;4.10;99.90;;;;;;5048724;28;20025;-64
2023/03/05 01:27:51;;;;;;;16.30;2.45;;;4.10;99.90;;;;;;5049021;28;20033;-64
2023/03/05 01:30:17;;;;;;;12.73;3.33;;;4.10;99.90;;;;;;5031741;28;20032;-64
2023/03/05 01:32:42;;;;;;;8.10;2.80;;;4.10;99.90;;;;;;5053913;28;20433;-63
2023/03/05 01:35:14;;;;;;;14.55;4.15;;;4.00;99.90;;;;;;5048711;28;20040;-64
2023/03/05 01:37:40;;;;;;;11.20;4.30;;;4.00;99.90;;;;;;5049669;28;20091;-64
2023/03/05 01:40:06;;;;;;;17.90;3.97;;;4.00;99.90;;;;;;5065798;28;20559;-62
2023/03/05 01:42:32;;;;;;;11.85;3.28;;;4.00;99.90;;;;;;5046743;28;20155;-64
2023/03/05 01:45:14;;;;;;;8.82;3.40;;;4.00;99.90;;;;;;5038442;28;20107;-63
2023/03/05 01:47:40;;;;;;;15.82;3.90;;;4.00;99.90;;;;;;5050946;28;20029;-65
2023/03/05 01:50:10;;;;;;;13.18;3.72;;;3.90;99.90;;;;;;5048776;28;20454;-64
2023/03/05 01:52:38;;;;;;;8.90;4.10;;;3.90;99.90;;;;;;5048395;28;20486;-63
2023/03/05 01:55:25;;;;;;;10.63;3.60;;;3.90;99.90;;;;;;5046616;28;20390;-63
2023/03/05 01:58:00;;;;;;;19.00;4.32;;;3.90;99.90;;;;;;5040066;28;20033;-63
2023/03/05 02:00:51;;;;;;;20.30;3.65;;;3.90;99.90;;;;;;5043227;28;20486;-64
2023/03/05 02:03:18;;;;;;;14.40;3.85;;;3.90;99.90;;;;;;5037279;28;20044;-64
2023/03/05 02:05:44;;;;;;;13.18;3.53;;;3.90;99.90;;;;;;5042915;28;20078;-63
2023/03/05 02:08:13;;;;;;;10.55;3.30;;;3.90;99.90;;;;;;5044295;28;20033;-63
2023/03/05 02:10:43;;;;;;;7.80;2.33;;;3.90;99.90;;;;;;5042118;28;20017;-63
2023/03/05 02:13:15;;;;;;;9.25;2.40;;;3.90;99.90;;;;;;5042218;28;20078;-63
2023/03/05 02:15:41;;;;;;;9.18;2.92;;;3.90;99.90;;;;;;5041975;28;20021;-63
2023/03/05 02:18:08;;;;;;;16.25;3.72;;;3.90;99.90;;;;;;5046623;28;20488;-63
2023/03/05 02:20:55;;;;;;;18.30;2.67;;;3.90;99.90;;;;;;5044338;28;20118;-64
2023/03/05 02:23:24;;;;;;;10.40;1.95;;;3.80;99.90;;;;;;5045737;28;20029;-63
2023/03/05 02:25:50;;;;;;;11.95;2.67;;;3.80;99.90;;;;;;5046574;28;20119;-62
2023/03/05 02:28:21;;;;;;;11.07;2.88;;;3.80;99.90;;;;;;5046352;28;20033;-64
2023/03/05 02:30:47;;;;;;;9.85;3.00;;;3.80;99.90;;;;;;5022357;28;20029;-62
2023/03/05 02:33:14;;;;;;;16.95;2.97;;;3.80;99.90;;;;;;5049543;28;20296;-62
2023/03/05 02:35:42;;;;;;;11.65;2.40;;;3.80;99.90;;;;;;5044969;28;20044;-63
2023/03/05 02:38:08;;;;;;;15.23;2.53;;;3.80;99.90;;;;;;5050420;28;21512;-64
2023/03/05 02:40:34;;;;;;;6.30;2.50;;;3.70;99.90;;;;;;5048445;28;20048;-64
2023/03/05 02:42:59;;;;;;;11.73;2.45;;;3.70;99.90;;;;;;5046973;28;20025;-62
2023/03/05 02:45:25;;;;;;;12.10;3.63;;;3.70;99.90;;;;;;5046596;28;20029;-64
2023/03/05 02:47:50;;;;;;;7.50;2.40;;;3.70;99.90;;;;;;5048198;28;20468;-64
2023/03/05 02:50:16;;;;;;;15.82;3.53;;;3.70;99.90;;;;;;5048325;28;20028;-64
2023/03/05 02:52:42;;;;;;;12.57;3.30;;;3.70;99.90;;;;;;5048010;28;20478;-64
2023/03/05 02:55:08;;;;;;;10.23;3.47;;;3.70;99.90;;;;;;5046306;28;20504;-63
2023/03/05 02:57:33;;;;;;;14.63;2.38;;;3.70;99.90;;;;;;5034904;28;20029;-64
2023/03/05 02:59:59;;;;;;;13.93;2.95;;;3.70;99.90;;;;;;5039869;28;20025;-64
2023/03/05 03:02:24;;;;;;;16.35;3.13;;;3.80;99.90;;;;;;5041805;28;20051;-64
2023/03/05 03:04:50;;;;;;;9.07;1.95;;;3.70;99.90;;;;;;5041533;28;20064;-64
2023/03/05 03:07:15;;;;;;;12.18;3.75;;;3.70;99.90;;;;;;5041561;28;20036;-63
2023/03/05 03:09:42;;;;;;;12.02;3.97;;;3.70;99.90;;;;;;5045522;28;20060;-65
2023/03/05 03:12:08;;;;;;;14.05;3.08;;;3.60;99.90;;;;;;5044747;28;20234;-64
2023/03/05 03:14:38;;;;;;;12.75;4.10;;;3.60;99.90;;;;;;5050395;28;20029;-64
2023/03/05 03:17:09;;;;;;;14.93;3.72;;;3.60;99.90;;;;;;5048267;28;20032;-64
2023/03/05 03:19:35;;;;;;;12.20;3.55;;;3.60;99.90;;;;;;5048918;28;20049;-64
2023/03/05 03:22:01;;;;;;;13.48;3.40;;;3.60;99.90;;;;;;5047002;28;20509;-64
2023/03/05 03:24:28;;;;;;;10.65;3.78;;;3.60;99.90;;;;;;5048800;28;20033;-64
2023/03/05 03:26:53;;;;;;;15.30;4.22;;;3.60;99.90;;;;;;5048031;28;20040;-63
2023/03/05 03:29:19;;;;;;;13.27;3.75;;;3.60;99.90;;;;;;5049846;28;20029;-65
2023/03/05 03:31:44;;;;;;;15.65;4.55;;;3.60;99.90;;;;;;5029627;28;20124;-64
2023/03/05 03:34:11;;;;;;;17.42;4.88;;;3.50;99.90;;;;;;5047182;28;20047;-63
2023/03/05 03:36:37;;;;;;;12.95;4.10;;;3.50;99.90;;;;;;5049720;28;20551;-64
2023/03/05 03:39:04;;;;;;;13.98;4.15;;;3.50;99.90;;;;;;5048726;28;20057;-63
2023/03/05 03:41:31;;;;;;;24.02;5.38;;;3.40;99.90;;;;;;5046098;28;20033;-64
2023/03/05 03:43:57;;;;;;;16.88;4.03;;;3.50;99.90;;;;;;5047793;28;20116;-63
2023/03/05 03:46:22;;;;;;;13.75;4.88;;;3.50;99.90;;;;;;5047280;28;20112;-64
2023/03/05 03:48:51;;;;;;;13.35;3.80;;;3.50;99.90;;;;;;5048564;28;20120;-64
2023/03/05 03:51:17;;;;;;;13.27;4.10;;;3.50;99.90;;;;;;5049414;28;20025;-64
2023/03/05 03:53:43;;;;;;;13.82;4.30;;;3.50;99.90;;;;;;5046757;28;20379;-63
2023/03/05 03:56:08;;;;;;;11.30;3.75;;;3.50;99.90;;;;;;5052695;28;20032;-63
2023/03/05 03:58:34;;;;;;;10.13;3.45;;;3.50;99.90;;;;;;5047730;28;20045;-64
2023/03/05 04:01:00;;;;;;;16.42;4.07;;;3.50;99.90;;;;;;5043767;28;20032;-64
2023/03/05 04:03:25;;;;;;;14.73;3.42;;;3.50;99.90;;;;;;5055322;28;20040;-64
2023/03/05 04:05:51;;;;;;;13.32;3.45;;;3.50;99.90;;;;;;5044739;28;20033;-64
2023/03/05 04:08:16;;;;;;;14.30;3.65;;;3.40;99.90;;;;;;5041384;28;20099;-63
2023/03/05 04:10:42;;;;;;;18.05;4.45;;;3.40;99.90;;;;;;5042206;28;20111;-63
2023/03/05 04:13:07;;;;;;;9.63;2.55;;;3.40;99.90;;;;;;5043320;28;20029;-63
2023/03/05 04:15:33;;;;;;;10.05;3.10;;;3.40;99.90;;;;;;5047067;28;20108;-64
2023/03/05 04:17:59;;;;;;;20.42;4.55;;;3.40;99.90;;;;;;5047644;28;20029;-63
2023/03/05 04:20:25;;;;;;;9.27;2.00;;;3.40;99.90;;;;;;5041839;28;20802;-63
2023/03/05 04:22:51;;;;;;;15.43;2.63;;;3.40;99.90;;;;;;5040536;28;20064;-64
2023/03/05 04:25:16;;;;;;;12.05;3.85;;;3.40;99.90;;;;;;5043972;28;20029;-64
2023/03/05 04:27:42;;;;;;;8.40;1.92;;;3.40;99.90;;;;;;5040395;28;20051;-63
2023/03/05 04:30:10;;;;;;;9.68;2.90;;;3.30;99.90;;;;;;5041053;28;20711;-64
2023/03/05 04:32:36;;;;;;;10.95;2.05;;;3.30;99.90;;;;;;5026280;28;20032;-62
2023/03/05 04:35:02;;;;;;;14.40;2.50;;;3.30;99.90;;;;;;5059747;28;20021;-63
2023/03/05 04:37:28;;;;;;;8.25;2.63;;;3.30;99.90;;;;;;5048030;28;20482;-63
2023/03/05 04:39:53;;;;;;;6.60;2.03;;;3.30;99.90;;;;;;5051482;28;20492;-63
2023/03/05 04:42:20;;;;;;;9.80;2.45;;;3.30;99.90;;;;;;5047701;28;20037;-63
2023/03/05 04:44:49;;;;;;;20.35;2.50;;;3.30;99.90;;;;;;5048445;28;20055;-64
2023/03/05 04:47:16;;;;;;;6.30;1.77;;;3.30;99.90;;;;;;5050648;28;20033;-63
2023/03/05 04:49:41;;;;;;;10.85;2.58;;;3.30;99.90;;;;;;5051562;28;20399;-64
2023/03/05 04:52:08;;;;;;;9.38;1.60;;;3.30;99.90;;;;;;5048120;28;20033;-63
2023/03/05 04:54:34;;;;;;;16.58;2.22;;;3.30;99.90;;;;;;5050142;28;20052;-64
2023/03/05 04:57:00;;;;;;;9.10;2.03;;;3.30;99.90;;;;;;5047361;28;20024;-64
2023/03/05 04:59:25;;;;;;;8.35;2.28;;;3.30;99.90;;;;;;5049895;28;20111;-64
2023/03/05 05:01:51;;;;;;;5.03;1.70;;;3.30;99.90;;;;;;5053169;28;20033;-64
2023/03/05 05:04:16;;;;;;;4.57;2.38;;;3.30;99.90;;;;;;5049646;28;20452;-64
2023/03/05 05:06:42;;;;;;;13.52;1.77;;;3.30;99.90;;;;;;5048698;28;20025;-64
2023/03/05 05:09:08;;;;;;;10.93;1.98;;;3.20;99.90;;;;;;5049744;28;20036;-64
2023/03/05 05:11:33;;;;;;;13.43;2.53;;;3.20;99.90;;;;;;5047346;28;20032;-63
2023/03/05 05:13:59;;;;;;;11.05;1.92;;;3.20;99.90;;;;;;5052833;28;20037;-63
2023/03/05 05:16:24;;;;;;;5.25;1.67;;;3.20;99.90;;;;;;5050859;28;20033;-62
2023/03/05 05:18:50;;;;;;;9.55;1.80;;;3.20;99.90;;;;;;5049349;28;20493;-63
2023/03/05 05:21:17;;;;;;;10.57;1.85;;;3.30;99.90;;;;;;5049031;28;20029;-64
2023/03/05 05:23:43;;;;;;;10.52;2.03;;;3.20;99.90;;;;;;5048324;28;20025;-63
2023/03/05 05:26:13;;;;;;;6.93;1.98;;;3.20;99.90;;;;;;5050376;28;20497;-62
2023/03/05 05:28:42;;;;;;;11.23;2.45;;;3.20;99.90;;;;;;5049988;28;20476;-64
2023/03/05 05:31:09;;;;;;;7.10;2.03;;;3.20;99.90;;;;;;5028092;28;20032;-64
2023/03/05 05:33:35;;;;;;;6.40;2.35;;;3.20;99.90;;;;;;5049213;28;20107;-63
2023/03/05 05:36:03;;;;;;;7.03;2.55;;;3.20;99.90;;;;;;5052779;28;20021;-63
2023/03/05 05:38:29;;;;;;;12.68;2.90;;;3.20;99.90;;;;;;5050289;28;20486;-64
2023/03/05 05:41:00;;;;;;;11.60;2.33;;;3.20;99.90;;;;;;5049581;28;20091;-62
2023/03/05 05:43:25;;;;;;;8.27;1.90;;;3.20;99.90;;;;;;5061408;28;20124;-63
2023/03/05 05:45:51;;;;;;;5.28;2.15;;;3.20;99.90;;;;;;5052119;28;20044;-63
2023/03/05 05:48:16;;;;;;;5.35;2.00;;;3.20;99.90;;;;;;5049231;28;20116;-64
2023/03/05 05:50:42;;;;;;;5.15;2.00;;;3.20;99.90;;;;;;5048783;28;20403;-64
2023/03/05 05:53:07;;;;;;;10.25;2.70;;;3.10;99.90;;;;;;5046925;28;20025;-64
2023/03/05 05:55:33;;;;;;;6.90;2.28;;;3.10;99.90;;;;;;5050913;28;20036;-63
2023/03/05 05:57:58;;;;;;;9.23;3.70;;;3.10;99.90;;;;;;5044459;28;20031;-64
2023/03/05 06:00:24;;;;;;;5.13;1.80;;;3.00;99.90;;;;;;5049563;28;20044;-63
2023/03/05 06:02:49;;;;;;;14.57;2.33;;;3.00;99.90;;;;;;5046076;28;20486;-64
2023/03/05 06:05:15;;;;;;;7.85;2.05;;;3.00;99.90;;;;;;5041855;28;20035;-62
2023/03/05 06:07:41;;;;;;;14.05;3.50;;;3.00;99.90;;;;;;5047195;28;20029;-63
2023/03/05 06:10:08;;;;;;;9.10;2.50;;;3.00;99.90;;;;;;5042657;28;20063;-63
2023/03/05 06:12:34;;;;;;;8.88;2.83;;;3.00;99.90;;;;;;5048177;28;20025;-64
2023/03/05 06:14:59;;;;;;;8.30;2.90;;;3.00;99.90;;;;;;5043825;28;20029;-63
2023/03/05 06:17:26;;;;;;;11.20;3.30;;;3.00;99.90;;;;;;5046888;28;20096;-63
2023/03/05 06:19:54;;;;;;;14.05;3.53;;;3.00;99.90;;;;;;5041854;28;20036;-64
2023/03/05 06:22:19;;;;;;;9.10;2.90;;;3.00;99.90;;;;;;5043365;28;20460;-62
2023/03/05 06:24:45;;;;;;;13.38;2.92;;;2.90;99.90;;;;;;5046356;28;20028;-64
2023/03/05 06:27:10;;;;;;;11.18;2.97;;;2.90;99.90;;;;;;5046132;28;20462;-65
2023/03/05 06:29:36;;;;;;;9.57;2.50;;;3.00;99.90;;;;;;5065468;22;20120;-66
2023/03/05 06:32:03;;;;;;;11.43;2.80;;;3.00;99.90;;;;;;5028979;28;20551;-67
2023/03/05 06:34:28;;;;;;;10.25;2.75;;;3.10;99.90;;;;;;5045099;28;20049;-65
2023/03/05 06:36:54;;;;;;;9.10;2.55;;;3.00;99.90;;;;;;5049560;28;20056;-66
2023/03/05 06:39:19;;;;;;;14.73;3.00;;;3.10;99.90;;;;;;5050773;28;20029;-64
2023/03/05 06:41:45;;;;;;;10.85;2.28;;;3.10;99.90;;;;;;5047758;28;20433;-66
2023/03/05 06:44:11;;;;;;;11.70;2.30;;;3.10;99.90;;;;;;5044693;28;20032;-66
2023/03/05 06:46:38;;;;;;;9.10;2.40;;;3.10;99.90;;;;;;5041987;28;20021;-66
2023/03/05 06:49:04;;;;;;;19.02;6.03;;;3.20;99.90;;;;;;5049169;28;20086;-65
2023/03/05 06:51:34;;;;;;;23.02;6.80;;;3.20;99.90;;;;;;5048191;28;20013;-65
2023/03/05 06:54:03;;;;;;;15.43;6.43;;;3.20;99.90;;;;;;5046829;28;20028;-66
2023/03/05 06:56:28;;;;;;;15.43;4.05;;;3.30;99.90;;;;;;5046488;28;20516;-65
2023/03/05 06:58:54;;;;;;;7.68;2.47;;;3.30;99.90;;;;;;5049478;28;20054;-66
2023/03/05 07:01:20;;;;;;;11.52;3.40;;;3.30;99.90;;;;;;5044590;28;20386;-66
2023/03/05 07:03:51;;;;;;;8.70;2.60;;;3.30;99.90;;;;;;5047293;28;20024;-66
2023/03/05 07:06:17;;;;;;;17.98;2.65;;;3.40;99.90;;;;;;5049966;28;20518;-66
2023/03/05 07:08:46;;;;;;;9.65;2.25;;;3.40;99.90;;;;;;5049313;28;20023;-67
2023/03/05 07:11:19;;;;;;;13.40;3.38;;;3.50;99.90;;;;;;5047155;28;20154;-68
2023/03/05 07:13:48;;;;;;;14.18;4.40;;;3.50;99.90;;;;;;5043643;28;20531;-67
2023/03/05 07:16:17;;;;;;;8.50;2.63;;;3.50;99.90;;;;;;5047244;28;20037;-67
2023/03/05 07:18:43;;;;;;;11.90;3.33;;;3.60;99.90;;;;;;5047557;28;20079;-65
2023/03/05 07:21:13;;;;;;;9.40;2.35;;;3.60;99.90;;;;;;5048801;28;20029;-68
2023/03/05 07:23:39;;;;;;;9.27;3.03;;;3.60;99.90;;;;;;5045315;28;20033;-67
2023/03/05 07:26:06;;;;;;;8.55;2.85;;;3.60;99.90;;;;;;5045776;28;20414;-67
2023/03/05 07:28:33;;;;;;;8.18;2.38;;;3.70;99.90;;;;;;5047557;28;20025;-65
2023/03/05 07:31:06;;;;;;;6.00;1.92;;;3.70;99.90;;;;;;5049023;28;20111;-68
2023/03/05 07:33:32;;;;;;;5.15;1.73;;;3.70;99.90;;;;;;5030594;28;20130;-66
2023/03/05 07:35:58;;;;;;;12.68;2.80;;;3.80;99.90;;;;;;5046043;28;20025;-68
2023/03/05 07:38:24;;;;;;;6.47;2.10;;;3.80;99.90;;;;;;5047680;28;20033;-68
2023/03/05 07:40:49;;;;;;;5.95;1.80;;;3.80;99.90;;;;;;5047039;28;20504;-66
2023/03/05 07:43:15;;;;;;;4.88;1.77;;;3.90;99.90;;;;;;5045545;28;20102;-68
2023/03/05 07:45:42;;;;;;;11.80;2.42;;;3.90;99.90;;;;;;5047361;28;20037;-66
2023/03/05 07:48:12;;;;;;;7.57;2.10;;;4.00;99.90;;;;;;5044081;28;20355;-65
2023/03/05 07:50:38;;;;;;;6.03;1.83;;;4.00;99.90;;;;;;5044438;28;20021;-66
2023/03/05 07:53:04;;;;;;;7.93;2.10;;;4.00;99.90;;;;;;5046780;28;20116;-66
2023/03/05 07:55:29;;;;;;;9.65;2.60;;;4.10;99.90;;;;;;5047290;28;20032;-67
2023/03/05 07:57:55;;;;;;;15.50;5.10;;;4.10;99.90;;;;;;5040291;28;20030;-66
2023/03/05 08:00:21;;;;;;;29.00;11.43;;;4.10;99.90;;;;;;5041643;28;20032;-66
2023/03/05 08:02:46;;;;;;;83.15;26.38;;;4.20;99.90;;;;;;5043538;28;20218;-66
2023/03/05 08:05:13;;;;;;;16.58;6.78;;;4.30;99.90;;;;;;5045322;28;20036;-66
2023/03/05 08:07:38;;;;;;;14.82;3.50;;;4.30;99.90;;;;;;5047431;28;20036;-66
2023/03/05 08:10:05;;;;;;;8.27;2.58;;;4.40;99.90;;;;;;5050089;28;20033;-67
2023/03/05 08:12:30;;;;;;;10.75;3.72;;;4.50;99.90;;;;;;5049041;28;20029;-66
2023/03/05 08:14:56;;;;;;;6.97;2.97;;;4.80;99.90;;;;;;5048627;28;20092;-65
2023/03/05 08:17:21;;;;;;;10.98;2.30;;;5.10;99.90;;;;;;5049877;28;20031;-67
2023/03/05 08:19:47;;;;;;;10.65;2.35;;;5.30;99.90;;;;;;5048204;28;20110;-67
2023/03/05 08:22:14;;;;;;;8.73;2.65;;;5.40;99.90;;;;;;5049813;28;20065;-68
2023/03/05 08:24:41;;;;;;;4.13;2.00;;;5.50;99.90;;;;;;5051332;28;20032;-66
2023/03/05 08:27:07;;;;;;;19.15;9.23;;;5.50;99.90;;;;;;5049088;28;20029;-65
2023/03/05 08:29:32;;;;;;;15.60;4.55;;;5.50;99.90;;;;;;5047680;28;20624;-67
2023/03/05 08:31:58;;;;;;;5.88;3.28;;;5.50;99.90;;;;;;5038962;28;20079;-66
2023/03/05 08:34:23;;;;;;;9.82;2.47;;;5.40;99.90;;;;;;5047736;28;20103;-67
2023/03/05 08:36:49;;;;;;;16.23;6.53;;;5.40;99.90;;;;;;5045951;28;20215;-67
2023/03/05 08:39:15;;;;;;;17.70;5.57;;;5.20;99.90;;;;;;5050075;28;20029;-66
2023/03/05 08:41:41;;;;;;;10.00;4.13;;;5.20;99.90;;;;;;5043291;28;20033;-67
2023/03/05 08:44:06;;;;;;;21.23;8.80;;;5.10;99.90;;;;;;5040976;28;20040;-67
2023/03/05 08:46:32;;;;;;;21.25;8.23;;;5.00;99.90;;;;;;5044926;28;20465;-65
2023/03/05 08:48:58;;;;;;;19.13;7.78;;;5.00;99.90;;;;;;5058307;28;20065;-67
2023/03/05 08:51:25;;;;;;;29.85;8.68;;;4.90;99.90;;;;;;5044578;28;20032;-66
2023/03/05 08:53:52;;;;;;;11.60;4.68;;;4.80;99.90;;;;;;5044882;28;20056;-66
2023/03/05 08:56:18;;;;;;;9.45;2.60;;;4.70;99.90;;;;;;5040064;28;21389;-65
2023/03/05 08:58:45;;;;;;;15.73;4.30;;;4.70;99.90;;;;;;5048361;28;20818;-66
2023/03/05 09:01:11;;;;;;;102.00;35.65;;;4.70;99.90;;;;;;5049049;28;20620;-66
2023/03/05 09:03:37;;;;;;;12.90;4.95;;;4.80;99.90;;;;;;5042081;28;20047;-67
2023/03/05 09:06:05;;;;;;;10.60;5.13;;;4.90;99.90;;;;;;5046152;28;20033;-66
2023/03/05 09:08:31;;;;;;;15.23;4.28;;;4.90;99.90;;;;;;5046458;28;20055;-66
2023/03/05 09:10:57;;;;;;;8.30;3.22;;;4.90;99.90;;;;;;5047980;28;20025;-66
2023/03/05 09:13:22;;;;;;;14.93;4.40;;;4.80;99.90;;;;;;5048485;28;20584;-67
2023/03/05 09:15:59;;;;;;;11.40;3.10;;;4.80;99.90;;;;;;5052346;28;20112;-66
2023/03/05 09:18:26;;;;;;;8.57;2.75;;;4.60;99.90;;;;;;5049388;28;20501;-67
2023/03/05 09:20:52;;;;;;;8.55;2.75;;;4.70;99.90;;;;;;5049468;28;20060;-67
2023/03/05 09:23:18;;;;;;;11.48;3.70;;;4.70;99.90;;;;;;5049832;28;20510;-67
2023/03/05 09:25:43;;;;;;;12.25;2.90;;;4.80;99.90;;;;;;5050259;28;20033;-67
2023/03/05 09:28:09;;;;;;;8.50;2.60;;;5.00;99.90;;;;;;5048291;28;20158;-66
2023/03/05 09:30:35;;;;;;;7.53;3.33;;;5.10;99.90;;;;;;5049991;28;20086;-67
2023/03/05 09:33:01;;;;;;;7.35;2.60;;;5.20;99.90;;;;;;5035034;28;20123;-67
2023/03/05 09:35:27;;;;;;;9.90;4.03;;;5.30;99.90;;;;;;5044437;28;20436;-67
2023/03/05 09:37:53;;;;;;;10.48;3.40;;;5.40;99.90;;;;;;5051529;28;20466;-66
2023/03/05 09:40:20;;;;;;;8.10;2.80;;;5.60;99.90;;;;;;5047502;28;20074;-67
2023/03/05 09:43:03;;;;;;;6.85;2.47;;;5.60;99.90;;;;;;5041091;28;20063;-66
2023/03/05 09:45:34;;;;;;;11.27;3.20;;;5.70;99.90;;;;;;5049563;28;20057;-65
2023/03/05 09:48:12;;;;;;;15.20;3.97;;;5.60;99.90;;;;;;5052148;28;20581;-65
2023/03/05 09:50:37;;;;;;;8.93;3.30;;;5.60;99.90;;;;;;5050790;28;20024;-66
2023/03/05 09:53:12;;;;;;;10.35;3.45;;;5.60;99.90;;;;;;5049034;28;20029;-65
2023/03/05 09:55:42;;;;;;;10.55;3.70;;;5.70;99.90;;;;;;5043433;28;20017;-66
2023/03/05 09:58:18;;;;;;;11.15;2.72;;;5.80;99.90;;;;;;5045745;28;20024;-67
2023/03/05 10:00:56;;;;;;;7.03;2.95;;;5.90;99.90;;;;;;5048582;28;20074;-66
2023/03/05 10:03:30;;;;;;;9.45;2.65;;;6.00;99.90;;;;;;5050679;28;20025;-66
2023/03/05 10:06:33;;;;;;;12.43;2.85;;;5.80;99.90;;;;;;5047873;28;20056;-66
2023/03/05 10:09:10;;;;;;;80.95;25.45;;;5.50;99.90;;;;;;5048370;28;20032;-67
2023/03/05 10:12:13;;;;;;;411.23;115.60;;;5.40;99.90;;;;;;5043730;28;21314;-65
2023/03/05 10:14:40;;;;;;;708.42;223.30;;;5.30;99.90;;;;;;5047581;28;20017;-66
2023/03/05 10:17:30;;;;;;;724.72;232.63;;;5.50;99.90;;;;;;5050253;28;20709;-65
2023/03/05 10:20:12;;;;;;;586.35;186.13;;;5.60;99.90;;;;;;5048740;28;20520;-67
2023/03/05 10:22:53;;;;;;;62.28;23.52;;;5.60;99.90;;;;;;5022799;28;20459;-65
2023/03/05 10:25:22;;;;;;;49.78;22.48;;;5.70;99.90;;;;;;5053590;28;20041;-64
2023/03/05 10:28:04;;;;;;;28.75;13.85;;;5.80;99.90;;;;;;5030298;28;20475;-67
2023/03/05 10:30:48;;;;;;;15.73;4.75;;;6.00;99.90;;;;;;5051345;28;20088;-67
2023/03/05 10:33:55;;;;;;;8.30;3.70;;;6.20;99.90;;;;;;5003873;28;20419;-66
2023/03/05 10:36:32;;;;;;;8.13;4.30;;;6.50;99.90;;;;;;5016440;28;20041;-66
2023/03/05 10:39:22;;;;;;;13.65;4.63;;;6.90;99.90;;;;;;5045893;28;20029;-66
2023/03/05 10:42:26;;;;;;;11.38;4.15;;;6.90;99.90;;;;;;5034907;28;20113;-65
2023/03/05 10:44:53;;;;;;;12.65;3.72;;;6.80;99.90;;;;;;5045874;28;20394;-68
2023/03/05 10:47:46;;;;;;;11.73;3.63;;;6.80;99.90;;;;;;5050050;28;20043;-66
2023/03/05 10:50:17;;;;;;;16.83;5.55;;;6.40;99.90;;;;;;5039469;28;20395;-68
2023/03/05 10:52:45;;;;;;;13.60;4.80;;;6.10;99.90;;;;;;5042664;28;20017;-67
2023/03/05 10:55:20;;;;;;;11.32;4.60;;;5.90;99.90;;;;;;5047428;28;20033;-68
2023/03/05 10:57:46;;;;;;;12.30;4.85;;;5.70;99.90;;;;;;5045341;28;20032;-67
2023/03/05 11:00:15;;;;;;;12.00;4.53;;;5.50;99.90;;;;;;5049481;28;20029;-68
2023/03/05 11:03:00;;;;;;;15.43;4.80;;;5.30;99.90;;;;;;5048767;28;20017;-67
2023/03/05 11:05:43;;;;;;;10.20;4.97;;;5.20;99.90;;;;;;5049084;28;20098;-67
2023/03/05 11:08:29;;;;;;;8.35;4.50;;;4.90;99.90;;;;;;5045761;28;20029;-66
2023/03/05 11:11:17;;;;;;;8.90;5.13;;;4.80;99.90;;;;;;5049366;28;20496;-67
2023/03/05 11:13:54;;;;;;;11.65;5.68;;;4.50;99.90;;;;;;5047294;28;20024;-66
2023/03/05 11:16:45;;;;;;;18.30;7.05;;;4.50;99.90;;;;;;5047490;28;20016;-66
2023/03/05 11:19:16;;;;;;;9.05;6.22;;;4.50;99.90;;;;;;5037431;28;20068;-67
2023/03/05 11:21:44;;;;;;;18.42;6.90;;;4.70;99.90;;;;;;5049577;28;20494;-67
2023/03/05 11:24:17;;;;;;;13.40;6.88;;;4.90;99.90;;;;;;5046687;28;20028;-67
2023/03/05 11:26:47;;;;;;;15.02;7.55;;;5.10;99.90;;;;;;5049528;28;20115;-68
2023/03/05 11:29:18;;;;;;;15.13;6.50;;;5.20;99.90;;;;;;5046275;28;20032;-68
2023/03/05 11:31:44;;;;;;;13.38;5.90;;;5.40;99.90;;;;;;5039583;28;20029;-68
2023/03/05 11:34:15;;;;;;;13.02;7.57;;;5.50;99.90;;;;;;5023788;28;20056;-66
2023/03/05 11:36:48;;;;;;;13.63;6.95;;;5.50;99.90;;;;;;5041733;28;20115;-65
2023/03/05 11:39:18;;;;;;;28.23;10.85;;;5.50;99.90;;;;;;5040818;28;20452;-68
2023/03/05 11:41:57;;;;;;;20.70;8.45;;;5.50;99.90;;;;;;5041353;28;20119;-67
2023/03/05 11:44:33;;;;;;;13.07;7.00;;;5.40;99.90;;;;;;5049814;28;20394;-67
2023/03/05 11:47:24;;;;;;;13.43;7.70;;;5.40;99.90;;;;;;5042990;28;20044;-67
2023/03/05 11:49:57;;;;;;;16.55;6.82;;;5.30;99.90;;;;;;5045106;28;20063;-68
2023/03/05 11:52:31;;;;;;;11.48;6.90;;;5.20;99.90;;;;;;5044086;28;20032;-66
2023/03/05 11:55:22;;;;;;;18.17;7.40;;;5.30;99.90;;;;;;5041605;28;20033;-66
2023/03/05 11:57:48;;;;;;;11.00;6.78;;;5.30;99.90;;;;;;5041941;28;20049;-67
2023/03/05 12:00:31;;;;;;;17.17;8.30;;;5.30;99.90;;;;;;5040231;28;20680;-67
2023/03/05 12:03:01;;;;;;;10.70;6.55;;;5.50;99.90;;;;;;5044324;28;20370;-65
2023/03/05 12:05:28;;;;;;;12.68;6.82;;;5.60;99.90;;;;;;5045066;28;20462;-66
2023/03/05 12:08:00;;;;;;;11.45;7.22;;;5.60;99.90;;;;;;5044730;28;20021;-67
2023/03/05 12:10:26;;;;;;;11.73;7.47;;;5.70;99.90;;;;;;5048890;28;20057;-67
2023/03/05 12:13:01;;;;;;;13.07;6.57;;;5.60;99.90;;;;;;5051068;28;20454;-67
2023/03/05 12:15:46;;;;;;;12.65;7.00;;;5.60;99.90;;;;;;5051159;28;20032;-67
2023/03/05 12:18:29;;;;;;;20.17;7.55;;;5.50;99.90;;;;;;5041451;28;20029;-66
2023/03/05 12:21:35;;;;;;;13.73;7.53;;;5.30;99.90;;;;;;5040722;28;20379;-66
2023/03/05 12:24:22;;;;;;;16.02;9.25;;;4.90;99.90;;;;;;5040833;28;20030;-66
2023/03/05 12:26:55;;;;;;;12.88;8.55;;;4.60;99.90;;;;;;5050665;28;20037;-67
2023/03/05 12:29:36;;;;;;;12.57;8.00;;;4.50;99.90;;;;;;5050436;28;20037;-67
2023/03/05 12:32:04;;;;;;;16.75;10.00;;;4.40;99.90;;;;;;5050518;28;20389;-66
2023/03/05 12:34:38;;;;;;;17.30;10.45;;;4.40;99.90;;;;;;5035884;28;20037;-65
2023/03/05 12:37:24;;;;;;;15.35;9.45;;;4.40;99.90;;;;;;5052386;28;20025;-65
2023/03/05 12:39:59;;;;;;;24.00;10.18;;;4.30;99.90;;;;;;5046827;28;20025;-66
2023/03/05 12:42:28;;;;;;;16.08;10.05;;;4.40;99.90;;;;;;5067016;28;20029;-66
2023/03/05 12:45:10;;;;;;;22.35;11.27;;;4.40;99.90;;;;;;5046412;28;20048;-66
2023/03/05 12:47:36;;;;;;;18.88;11.10;;;4.60;99.90;;;;;;5049627;28;20102;-66
2023/03/05 12:50:03;;;;;;;19.75;11.02;;;4.60;99.90;;;;;;5073165;22;20043;-65
2023/03/05 12:52:32;;;;;;;22.80;11.93;;;4.60;99.90;;;;;;5046125;28;21022;-66
2023/03/05 12:55:23;;;;;;;15.85;8.68;;;4.50;99.90;;;;;;5049007;28;20031;-66
2023/03/05 12:57:59;;;;;;;15.07;9.63;;;4.40;99.90;;;;;;5044754;28;20039;-66